Time;durP1;ratioP1;P1;durP2;ratioP2;P2;SDS_P1;SDS_P2;PMS_P1;PMS_P2;Temp;Humidity;BMP_temperature;BMP_pressure;BME280_temperature;BME280_humidity;BME280_pressure;Samples;Min_cycle;Max_cycle;Signal;HPM_P1;HPM_P2
2022/07/11 00:01:02;;;;;;;10.77;2.17;;;;;;;14.95;100.00;102599.41;5053226;28;20029;-73
2022/07/11 00:03:28;;;;;;;7.53;2.10;;;;;;;14.96;100.00;102594.91;5053904;28;20078;-73
2022/07/11 00:05:53;;;;;;;6.30;2.13;;;;;;;14.97;100.00;102593.91;5053744;28;20048;-74
2022/07/11 00:08:19;;;;;;;9.32;2.38;;;;;;;14.99;100.00;102589.28;5053613;28;20055;-73
2022/07/11 00:10:46;;;;;;;8.02;2.42;;;;;;;15.02;100.00;102593.53;5053140;28;20033;-73
2022/07/11 00:13:12;;;;;;;8.77;2.00;;;;;;;15.08;100.00;102591.22;5053094;28;20037;-73
2022/07/11 00:15:37;;;;;;;6.68;1.90;;;;;;;15.14;100.00;102590.72;5053465;28;20048;-73
2022/07/11 00:18:03;;;;;;;6.88;1.67;;;;;;;15.18;100.00;102588.63;5053078;28;20084;-73
2022/07/11 00:20:28;;;;;;;6.82;2.00;;;;;;;15.23;100.00;102585.56;5053242;28;20362;-75
2022/07/11 00:22:54;;;;;;;15.20;2.70;;;;;;;15.25;100.00;102586.28;5053127;28;20115;-74
2022/07/11 00:25:20;;;;;;;6.45;2.25;;;;;;;15.29;100.00;102582.38;5053337;28;20033;-74
2022/07/11 00:27:45;;;;;;;7.30;2.22;;;;;;;15.32;100.00;102584.81;5053535;28;20056;-74
2022/07/11 00:30:12;;;;;;;6.45;2.58;;;;;;;15.34;100.00;102575.63;5052978;28;20033;-75
2022/07/11 00:32:37;;;;;;;11.13;1.88;;;;;;;15.39;100.00;102580.63;5053155;28;20029;-74
2022/07/11 00:35:03;;;;;;;11.38;2.05;;;;;;;15.40;100.00;102576.94;5052734;28;20480;-74
2022/07/11 00:37:28;;;;;;;8.63;2.25;;;;;;;15.44;100.00;102582.94;5052939;28;20091;-74
2022/07/11 00:39:54;;;;;;;12.02;2.47;;;;;;;15.47;100.00;102585.34;5052780;28;20036;-74
2022/07/11 00:42:19;;;;;;;5.65;1.65;;;;;;;15.49;100.00;102584.22;5052745;28;20493;-74
2022/07/11 00:44:44;;;;;;;10.20;2.00;;;;;;;15.51;100.00;102576.91;5052546;28;20025;-74
2022/07/11 00:47:10;;;;;;;6.53;1.65;;;;;;;15.53;100.00;102576.78;5052837;28;20091;-74
2022/07/11 00:49:35;;;;;;;4.97;1.73;;;;;;;15.56;100.00;102578.38;5053019;28;20033;-75
2022/07/11 00:52:00;;;;;;;9.98;1.90;;;;;;;15.55;100.00;102574.81;5052540;28;20041;-74
2022/07/11 00:54:27;;;;;;;8.95;2.00;;;;;;;15.58;100.00;102571.03;5052563;28;20047;-74
2022/07/11 00:56:52;;;;;;;6.75;1.80;;;;;;;15.60;100.00;102569.94;5052321;28;20036;-74
2022/07/11 00:59:19;;;;;;;8.18;1.88;;;;;;;15.62;100.00;102573.31;5052439;28;20025;-74
2022/07/11 01:01:45;;;;;;;4.78;2.08;;;;;;;15.63;100.00;102575.03;5052717;28;20071;-74
2022/07/11 01:04:10;;;;;;;6.82;1.73;;;;;;;15.66;100.00;102579.28;5052563;28;20033;-74
2022/07/11 01:06:36;;;;;;;4.10;1.70;;;;;;;15.67;100.00;102578.28;5052190;28;20037;-74
2022/07/11 01:09:01;;;;;;;10.82;2.30;;;;;;;15.69;100.00;102579.03;5052216;28;20346;-74
2022/07/11 01:11:27;;;;;;;6.90;2.00;;;;;;;15.68;100.00;102588.06;5052065;28;20025;-74
2022/07/11 01:13:52;;;;;;;7.22;2.00;;;;;;;15.68;100.00;102588.88;5052314;28;20085;-75
2022/07/11 01:16:24;;;;;;;4.88;1.85;;;;;;;15.68;100.00;102582.69;5052397;28;20029;-74
2022/07/11 01:18:52;;;;;;;7.28;2.20;;;;;;;15.71;100.00;102579.75;5052320;28;20125;-74
2022/07/11 01:21:40;;;;;;;7.22;2.05;;;;;;;15.72;100.00;102576.09;5052454;28;20037;-74
2022/07/11 01:24:07;;;;;;;8.18;2.17;;;;;;;15.73;100.00;102580.44;5052266;28;20431;-74
2022/07/11 01:26:33;;;;;;;5.55;1.80;;;;;;;15.72;100.00;102581.44;5052106;28;20048;-74
2022/07/11 01:29:07;;;;;;;9.30;2.00;;;;;;;15.72;100.00;102575.22;5052110;28;20438;-74
2022/07/11 01:31:32;;;;;;;7.75;2.10;;;;;;;15.71;100.00;102578.91;5051918;28;20051;-75
2022/07/11 01:33:58;;;;;;;7.50;2.28;;;;;;;15.72;100.00;102578.78;5050638;28;20357;-74
2022/07/11 01:36:23;;;;;;;7.13;2.00;;;;;;;15.73;100.00;102582.28;5051791;28;20136;-75
2022/07/11 01:38:48;;;;;;;7.53;2.10;;;;;;;15.73;100.00;102580.44;5050906;28;20445;-75
2022/07/11 01:41:14;;;;;;;6.65;2.47;;;;;;;15.75;100.00;102574.94;5051566;28;20064;-74
2022/07/11 01:43:39;;;;;;;8.25;1.98;;;;;;;15.75;100.00;102578.50;5051800;28;20064;-74
2022/07/11 01:46:05;;;;;;;7.90;2.13;;;;;;;15.76;100.00;102572.13;5051228;28;20333;-75
2022/07/11 01:48:30;;;;;;;7.45;2.10;;;;;;;15.77;100.00;102575.69;5050866;28;20040;-74
2022/07/11 01:50:56;;;;;;;8.30;2.45;;;;;;;15.77;100.00;102568.47;5051128;28;20445;-75
2022/07/11 01:53:21;;;;;;;14.02;1.88;;;;;;;15.77;100.00;102576.53;5050772;28;20040;-74
2022/07/11 01:55:47;;;;;;;7.15;2.40;;;;;;;15.78;100.00;102572.03;5050741;28;20115;-75
2022/07/11 01:58:13;;;;;;;5.18;1.88;;;;;;;15.76;100.00;102580.19;5050559;28;20381;-74
2022/07/11 02:00:38;;;;;;;5.45;2.05;;;;;;;15.78;100.00;102572.03;5050892;28;20071;-75
2022/07/11 02:03:03;;;;;;;6.55;1.92;;;;;;;15.78;100.00;102566.66;5049222;28;20033;-74
2022/07/11 02:05:29;;;;;;;6.10;1.85;;;;;;;15.78;100.00;102572.03;5050685;28;20033;-74
2022/07/11 02:08:13;;;;;;;5.53;1.90;;;;;;;15.78;100.00;102570.22;5050606;28;20477;-74
2022/07/11 02:10:49;;;;;;;5.90;1.98;;;;;;;15.76;100.00;102564.09;5050987;28;20060;-73
2022/07/11 02:13:17;;;;;;;6.32;1.75;;;;;;;15.75;100.00;102564.22;5050925;28;20082;-74
2022/07/11 02:15:44;;;;;;;2.25;1.30;;;;;;;15.75;100.00;102565.09;5050696;28;20033;-74
2022/07/11 02:18:11;;;;;;;4.43;1.60;;;;;;;15.77;100.00;102560.44;5050605;28;20029;-75
2022/07/11 02:20:38;;;;;;;8.38;1.58;;;;;;;15.78;100.00;102556.81;5050485;28;20025;-73
2022/07/11 02:23:04;;;;;;;4.05;1.35;;;;;;;15.79;100.00;102565.69;5050588;28;20119;-74
2022/07/11 02:25:30;;;;;;;6.65;1.40;;;;;;;15.79;100.00;102566.53;5048089;28;20406;-78
2022/07/11 02:27:56;;;;;;;2.90;1.50;;;;;;;15.80;100.00;102567.41;5049632;28;20094;-78
2022/07/11 02:30:22;;;;;;;4.68;2.10;;;;;;;15.80;100.00;102583.50;5049327;28;20033;-78
2022/07/11 02:32:49;;;;;;;3.03;1.38;;;;;;;15.80;100.00;102570.09;5049550;28;20025;-78
2022/07/11 02:35:14;;;;;;;2.88;1.42;;;;;;;15.78;100.00;102566.66;5032097;28;20029;-79
2022/07/11 02:37:40;;;;;;;3.40;1.50;;;;;;;15.78;100.00;102566.66;5048581;28;20033;-78
2022/07/11 02:40:06;;;;;;;6.38;2.25;;;;;;;15.78;100.00;102561.31;5049507;28;20104;-78
2022/07/11 02:42:31;;;;;;;4.43;1.60;;;;;;;15.77;100.00;102568.47;5047440;28;20033;-78
2022/07/11 02:44:57;;;;;;;5.00;1.60;;;;;;;15.78;100.00;102572.03;5004568;28;1253387;-78
2022/07/11 02:47:22;;;;;;;3.75;1.52;;;;;;;15.77;100.00;102567.63;5050363;28;20049;-78
2022/07/11 02:49:48;;;;;;;4.32;1.95;;;;;;;15.75;100.00;102567.78;5049841;28;20149;-77
2022/07/11 02:52:14;;;;;;;3.90;1.85;;;;;;;15.75;100.00;102565.09;5031943;28;20033;-78
2022/07/11 02:54:39;;;;;;;5.63;1.42;;;;;;;15.75;100.00;102564.22;5049833;28;20200;-77
2022/07/11 02:57:05;;;;;;;2.83;1.40;;;;;;;15.75;100.00;102562.41;5049467;28;20065;-78
2022/07/11 02:59:30;;;;;;;4.13;1.55;;;;;;;15.73;100.00;102568.88;5048007;28;20392;-77
2022/07/11 03:01:56;;;;;;;3.28;1.20;;;;;;;15.74;100.00;102574.09;5049853;28;20025;-77
2022/07/11 03:04:21;;;;;;;5.43;1.30;;;;;;;15.72;100.00;102568.03;5049657;28;20450;-77
2022/07/11 03:06:47;;;;;;;3.88;1.13;;;;;;;15.73;100.00;102571.56;5049667;28;20036;-78
2022/07/11 03:09:12;;;;;;;2.13;1.27;;;;;;;15.72;100.00;102559.13;5048134;28;20044;-78
2022/07/11 03:11:38;;;;;;;2.78;1.10;;;;;;;15.71;100.00;102563.63;5049557;28;20088;-77
2022/07/11 03:14:03;;;;;;;6.35;1.33;;;;;;;15.69;100.00;102565.63;5048025;28;20484;-77
2022/07/11 03:16:30;;;;;;;4.20;1.38;;;;;;;15.68;100.00;102563.91;5047959;28;20060;-77
2022/07/11 03:18:56;;;;;;;5.75;1.48;;;;;;;15.66;100.00;102560.50;5049369;28;20118;-77
2022/07/11 03:21:22;;;;;;;3.88;1.30;;;;;;;15.63;100.00;102564.31;5047716;28;20037;-78
2022/07/11 03:23:49;;;;;;;4.75;1.20;;;;;;;15.62;100.00;102567.13;5049711;28;20033;-77
2022/07/11 03:26:15;;;;;;;7.35;1.65;;;;;;;15.62;100.00;102572.47;5049774;28;20325;-77
2022/07/11 03:28:40;;;;;;;1.15;1.02;;;;;;;15.61;100.00;102576.13;5049508;28;20437;-78
2022/07/11 03:31:06;;;;;;;3.13;0.90;;;;;;;15.60;100.00;102583.34;5049611;28;20418;-78
2022/07/11 03:33:31;;;;;;;3.20;0.90;;;;;;;15.58;100.00;102571.88;5048042;28;20029;-78
2022/07/11 03:35:57;;;;;;;5.13;1.70;;;;;;;15.57;100.00;102572.88;5047995;28;20445;-78
2022/07/11 03:38:22;;;;;;;1.02;0.90;;;;;;;15.56;100.00;102571.16;5051445;28;20040;-83
2022/07/11 03:40:48;;;;;;;2.58;1.20;;;;;;;15.56;100.00;102570.31;5053141;28;20037;-78
2022/07/11 03:43:17;;;;;;;1.45;1.10;;;;;;;15.56;100.00;102576.53;5052585;28;20122;-78
2022/07/11 03:45:42;;;;;;;1.55;1.10;;;;;;;15.55;100.00;102569.44;5052497;28;20068;-78
2022/07/11 03:48:08;;;;;;;2.08;1.17;;;;;;;15.55;100.00;102576.66;5052750;28;20033;-78
2022/07/11 03:50:34;;;;;;;4.53;1.30;;;;;;;15.56;100.00;102575.69;5052631;28;20040;-78
2022/07/11 03:53:00;;;;;;;2.53;1.02;;;;;;;15.55;100.00;102574.81;5052746;28;20084;-77
2022/07/11 03:55:25;;;;;;;3.47;1.13;;;;;;;15.55;100.00;102574.81;5052306;28;20036;-78
2022/07/11 03:57:51;;;;;;;6.72;1.40;;;;;;;15.57;100.00;102580.03;5051169;28;20033;-78
2022/07/11 04:00:16;;;;;;;4.88;1.42;;;;;;;15.57;100.00;102585.41;5052507;28;20488;-78
2022/07/11 04:02:43;;;;;;;3.22;1.40;;;;;;;15.58;100.00;102581.75;5052468;28;20041;-78
2022/07/11 04:05:08;;;;;;;4.15;1.40;;;;;;;15.57;100.00;102582.72;5052341;28;20394;-77
2022/07/11 04:07:34;;;;;;;2.35;1.20;;;;;;;15.58;100.00;102581.75;5033973;28;20037;-77
2022/07/11 04:09:59;;;;;;;3.92;1.30;;;;;;;15.57;100.00;102580.03;5051161;28;20086;-77
2022/07/11 04:12:24;;;;;;;1.65;1.23;;;;;;;15.56;100.00;102573.84;5052098;28;20089;-77
2022/07/11 04:14:50;;;;;;;1.88;1.10;;;;;;;15.58;100.00;102581.75;5051831;28;20117;-77
2022/07/11 04:17:15;;;;;;;5.22;1.58;;;;;;;15.58;100.00;102584.44;5052240;28;20076;-77
2022/07/11 04:19:45;;;;;;;1.05;1.00;;;;;;;15.57;100.00;102575.56;5050559;28;20061;-77
2022/07/11 04:22:11;;;;;;;2.83;1.05;;;;;;;15.56;100.00;102579.22;5050714;28;20041;-77
2022/07/11 04:24:37;;;;;;;4.45;1.85;;;;;;;15.57;100.00;102582.72;5052191;28;20056;-78
2022/07/11 04:27:02;;;;;;;3.92;1.48;;;;;;;15.57;100.00;102582.72;5051847;28;20066;-77
2022/07/11 04:29:27;;;;;;;2.53;1.20;;;;;;;15.54;100.00;102583.88;5050304;28;20037;-76
2022/07/11 04:31:53;;;;;;;6.72;1.73;;;;;;;15.54;100.00;102577.63;5051601;28;20426;-76
2022/07/11 04:34:18;;;;;;;1.75;1.10;;;;;;;15.51;100.00;102578.75;5052345;28;20040;-78
2022/07/11 04:36:45;;;;;;;3.65;1.20;;;;;;;15.49;100.00;102572.66;5051717;28;20126;-78
2022/07/11 04:39:10;;;;;;;3.63;1.30;;;;;;;15.49;100.00;102578.84;5051650;28;20032;-78
2022/07/11 04:41:36;;;;;;;2.90;1.20;;;;;;;15.50;100.00;102575.19;5051957;28;20116;-78
2022/07/11 04:44:01;;;;;;;2.90;1.40;;;;;;;15.50;100.00;102577.03;5052000;28;20140;-77
2022/07/11 04:46:27;;;;;;;4.80;1.50;;;;;;;15.49;100.00;102565.44;5051640;28;20083;-77
2022/07/11 04:48:53;;;;;;;3.80;1.40;;;;;;;15.49;100.00;102572.66;5049850;28;20426;-77
2022/07/11 04:51:18;;;;;;;2.15;1.20;;;;;;;15.49;100.00;102564.59;5052234;28;20124;-77
2022/07/11 04:53:44;;;;;;;4.55;1.42;;;;;;;15.51;100.00;102573.41;5051599;28;20166;-77
2022/07/11 04:56:10;;;;;;;5.57;1.50;;;;;;;15.54;100.00;102585.69;5051780;28;20057;-77
2022/07/11 04:58:35;;;;;;;2.65;1.40;;;;;;;15.54;100.00;102583.88;5051623;28;20361;-77
2022/07/11 05:01:01;;;;;;;3.53;1.40;;;;;;;15.57;100.00;102593.47;5033446;28;20037;-78
2022/07/11 05:03:26;;;;;;;3.58;1.10;;;;;;;15.56;100.00;102584.56;5051388;28;20446;-78
2022/07/11 05:05:52;;;;;;;1.63;1.10;;;;;;;15.56;100.00;102578.38;5049665;28;20113;-77
2022/07/11 05:08:17;;;;;;;2.40;0.93;;;;;;;15.60;100.00;102588.72;5049953;28;20029;-77
2022/07/11 05:10:43;;;;;;;1.92;1.10;;;;;;;15.64;100.00;102594.66;5051099;28;20338;-78
2022/07/11 05:13:08;;;;;;;1.45;1.20;;;;;;;15.69;100.00;102589.75;5049757;28;20037;-77
2022/07/11 05:15:34;;;;;;;1.83;1.20;;;;;;;15.74;100.00;102592.91;5049623;28;20037;-78
2022/07/11 05:17:59;;;;;;;3.90;1.58;;;;;;;15.79;100.00;102601.41;5049685;28;20177;-78
2022/07/11 05:20:24;;;;;;;3.88;1.30;;;;;;;15.81;100.00;102602.16;5051563;28;20151;-77
2022/07/11 05:22:50;;;;;;;3.38;1.48;;;;;;;15.84;100.00;102604.59;5049465;28;20036;-78
2022/07/11 05:25:15;;;;;;;12.75;1.50;;;;;;;15.87;100.00;102600.78;5051272;28;20465;-77
2022/07/11 05:27:41;;;;;;;2.92;1.40;;;;;;;15.91;100.00;102606.75;5032963;28;20029;-77
2022/07/11 05:30:07;;;;;;;1.73;1.30;;;;;;;15.94;100.00;102599.25;5032738;28;20037;-78
2022/07/11 05:32:33;;;;;;;4.28;1.27;;;;;;;16.01;100.00;102611.19;5049535;28;20040;-78
2022/07/11 05:35:00;;;;;;;2.90;1.30;;;;;;;16.03;100.00;102608.38;5049889;28;20033;-78
2022/07/11 05:37:26;;;;;;;6.72;1.60;;;;;;;16.01;100.00;102605.81;5050873;28;20094;-78
2022/07/11 05:39:51;;;;;;;2.85;1.27;;;;;;;16.01;100.00;102608.50;5051094;28;20029;-78
2022/07/11 05:42:17;;;;;;;1.95;1.15;;;;;;;16.01;100.00;102618.41;5050652;28;20525;-77
2022/07/11 05:44:42;;;;;;;2.35;1.10;;;;;;;16.01;100.00;102611.19;5049401;28;20211;-78
2022/07/11 05:47:08;;;;;;;3.60;1.88;;;;;;;16.05;100.00;102611.78;5051277;28;20389;-78
2022/07/11 05:49:34;;;;;;;3.67;1.33;;;;;;;16.03;100.00;102616.41;5050758;28;20032;-78
2022/07/11 05:52:00;;;;;;;3.67;1.15;;;;;;;16.05;100.00;102619.84;5051158;28;20457;-78
2022/07/11 05:54:26;;;;;;;5.18;1.40;;;;;;;16.06;100.00;102612.63;5050730;28;20551;-77
2022/07/11 05:56:51;;;;;;;4.78;1.38;;;;;;;16.12;100.00;102617.47;5050517;28;20465;-77
2022/07/11 05:59:17;;;;;;;2.50;1.20;;;;;;;16.17;100.00;102616.09;5050336;28;20207;-78
2022/07/11 06:01:43;;;;;;;5.82;1.48;;;;;;;16.25;100.00;102614.56;5049246;28;20032;-78
2022/07/11 06:04:08;;;;;;;9.20;1.42;;;;;;;16.29;100.00;102616.84;5049089;28;20033;-77
2022/07/11 06:06:33;;;;;;;7.90;1.17;;;;;;;16.36;100.00;102604.59;5050622;28;20033;-77
2022/07/11 06:08:59;;;;;;;6.05;1.27;;;;;;;16.48;100.00;102610.72;5050960;28;20025;-77
2022/07/11 06:11:24;;;;;;;3.15;1.20;;;;;;;16.55;100.00;102606.50;5050454;28;20033;-78
2022/07/11 06:13:49;;;;;;;5.18;1.73;;;;;;;16.65;100.00;102594.94;5048645;28;20064;-77
2022/07/11 06:16:16;;;;;;;5.35;1.30;;;;;;;16.68;99.56;102600.06;5050022;28;20056;-78
2022/07/11 06:18:42;;;;;;;3.28;1.40;;;;;;;16.66;98.62;102593.94;5048777;28;20053;-77
2022/07/11 06:21:08;;;;;;;11.48;1.70;;;;;;;16.66;99.29;102589.44;5050222;28;20037;-76
2022/07/11 06:23:36;;;;;;;1.83;1.13;;;;;;;16.70;99.16;102590.00;5049922;28;20462;-77
2022/07/11 06:26:03;;;;;;;5.05;1.52;;;;;;;16.74;97.79;102596.81;5050041;28;20120;-77
2022/07/11 06:28:29;;;;;;;8.02;1.15;;;;;;;16.79;98.33;102596.41;5050101;28;20075;-77
2022/07/11 06:30:55;;;;;;;2.55;1.30;;;;;;;16.88;97.39;102587.53;5050068;28;20029;-78
2022/07/11 06:33:21;;;;;;;1.80;1.02;;;;;;;16.96;96.38;102587.72;5032035;28;20129;-77
2022/07/11 06:35:47;;;;;;;2.53;1.63;;;;;;;17.04;96.23;102587.00;5049788;28;20119;-77
2022/07/11 06:38:13;;;;;;;3.85;1.75;;;;;;;17.17;96.33;102601.03;5049906;28;20604;-77
2022/07/11 06:40:41;;;;;;;2.92;1.45;;;;;;;17.26;95.52;102597.50;5048334;28;20061;-78
2022/07/11 06:43:07;;;;;;;2.05;1.30;;;;;;;17.30;92.96;102607.97;5049668;28;20028;-78
2022/07/11 06:45:33;;;;;;;161.38;6.22;;;;;;;17.35;94.24;102603.88;5048044;28;20049;-77
2022/07/11 06:47:59;;;;;;;11.52;1.60;;;;;;;17.43;94.07;102608.56;5049919;28;20029;-77
2022/07/11 06:50:24;;;;;;;2.63;1.10;;;;;;;17.49;93.30;102605.28;5049503;28;20029;-77
2022/07/11 06:52:49;;;;;;;2.90;1.20;;;;;;;17.52;91.94;102605.00;5049463;28;20033;-77
2022/07/11 06:55:16;;;;;;;4.30;1.30;;;;;;;17.53;92.25;102609.41;5049518;28;20441;-77
2022/07/11 06:57:41;;;;;;;2.47;1.10;;;;;;;17.57;91.92;102613.53;5048142;28;20133;-75
2022/07/11 07:00:10;;;;;;;3.92;1.20;;;;;;;17.60;91.61;102604.28;5049650;28;20116;-77
2022/07/11 07:02:36;;;;;;;4.18;1.25;;;;;;;17.70;92.51;102615.06;5047669;28;20029;-77
2022/07/11 07:05:02;;;;;;;5.32;1.05;;;;;;;17.77;91.73;102606.25;5049668;28;20056;-77
2022/07/11 07:07:28;;;;;;;1.35;1.00;;;;;;;17.83;89.96;102618.31;5050090;28;20067;-75
2022/07/11 07:09:54;;;;;;;4.82;1.25;;;;;;;17.42;88.97;102621.16;5049785;28;20037;-76
2022/07/11 07:12:23;;;;;;;4.88;1.05;;;;;;;17.66;90.42;102627.97;5052309;28;20082;-78
2022/07/11 07:14:49;;;;;;;3.15;0.90;;;;;;;17.73;91.17;102625.53;5053402;28;20402;-79
2022/07/11 07:17:15;;;;;;;2.45;1.20;;;;;;;17.83;91.22;102620.16;5053017;28;20032;-79
2022/07/11 07:19:41;;;;;;;2.22;1.13;;;;;;;17.88;89.55;102620.56;5051930;28;20174;-78
2022/07/11 07:22:08;;;;;;;3.45;1.17;;;;;;;17.94;89.34;102615.50;5053564;28;20303;-79
2022/07/11 07:24:33;;;;;;;3.92;1.40;;;;;;;17.99;89.18;102623.13;5053739;28;20083;-80
2022/07/11 07:26:59;;;;;;;2.22;1.02;;;;;;;17.98;88.18;102624.13;5054381;28;20033;-78
2022/07/11 07:29:26;;;;;;;2.50;1.50;;;;;;;18.07;88.62;102625.94;5056473;28;20040;-78
2022/07/11 07:31:52;;;;;;;1.88;0.88;;;;;;;18.24;88.39;102628.88;5055384;28;20035;-78
2022/07/11 07:34:19;;;;;;;3.17;1.00;;;;;;;18.43;87.46;102636.06;5054224;28;20029;-79
2022/07/11 07:36:44;;;;;;;2.10;0.90;;;;;;;18.53;86.25;102639.56;5052876;28;20540;-78
2022/07/11 07:39:10;;;;;;;2.47;0.90;;;;;;;18.52;85.48;102632.47;5052972;28;20270;-77
2022/07/11 07:41:35;;;;;;;1.38;0.93;;;;;;;18.53;84.10;102625.25;5052675;28;20124;-79
2022/07/11 07:44:01;;;;;;;2.13;1.00;;;;;;;18.60;86.43;102626.31;5052555;28;20116;-79
2022/07/11 07:46:26;;;;;;;4.40;1.10;;;;;;;18.57;85.61;102624.81;5052805;28;20053;-79
2022/07/11 07:48:52;;;;;;;2.63;1.00;;;;;;;18.55;86.78;102615.16;5052466;28;20036;-78
2022/07/11 07:51:17;;;;;;;1.58;1.10;;;;;;;18.63;86.53;102615.25;5053029;28;20063;-78
2022/07/11 07:53:42;;;;;;;3.58;1.52;;;;;;;18.79;86.80;102611.91;5052716;28;20430;-78
2022/07/11 07:56:08;;;;;;;2.17;1.13;;;;;;;18.96;85.68;102616.53;5052264;28;20337;-78
2022/07/11 07:58:33;;;;;;;2.75;1.00;;;;;;;19.13;84.19;102624.81;5050574;28;20058;-79
2022/07/11 08:03:43;;;;;;;2.17;1.10;;;;;;;19.28;81.71;102627.81;5050746;28;20167;-79
2022/07/11 08:06:08;;;;;;;8.38;1.20;;;;;;;19.23;82.86;102628.28;5052295;28;20064;-79
2022/07/11 08:08:33;;;;;;;2.35;1.23;;;;;;;19.23;82.16;102630.97;5050261;28;20401;-79
2022/07/11 08:11:01;;;;;;;2.40;1.10;;;;;;;19.38;82.31;102632.13;5050596;28;20044;-79
2022/07/11 08:13:27;;;;;;;3.55;1.42;;;;;;;19.59;81.72;102624.75;5050544;28;20029;-78
2022/07/11 08:15:53;;;;;;;1.95;1.20;;;;;;;19.66;80.07;102628.50;5050679;28;20521;-78
2022/07/11 08:18:18;;;;;;;5.55;1.15;;;;;;;19.73;80.28;102633.13;5052450;28;20036;-78
2022/07/11 08:20:43;;;;;;;2.22;0.80;;;;;;;19.74;79.49;102626.72;5050848;28;20031;-77
2022/07/11 08:23:09;;;;;;;2.45;0.93;;;;;;;19.86;80.69;102631.91;5051890;28;20388;-77
2022/07/11 08:25:34;;;;;;;2.55;1.40;;;;;;;20.02;78.53;102629.31;5051854;28;20067;-77
2022/07/11 08:28:00;;;;;;;1.88;0.80;;;;;;;20.20;78.25;102636.53;5051770;28;20376;-78
2022/07/11 08:30:25;;;;;;;1.48;0.90;;;;;;;20.29;75.97;102637.41;5050787;28;20475;-77
2022/07/11 08:32:51;;;;;;;1.38;1.00;;;;;;;20.38;75.74;102641.88;5051945;28;20033;-77
2022/07/11 08:35:17;;;;;;;2.42;1.20;;;;;;;20.43;73.67;102643.06;5051854;28;20047;-77
2022/07/11 08:37:43;;;;;;;2.45;0.85;;;;;;;20.32;74.86;102635.25;5050217;28;20033;-77
2022/07/11 08:40:09;;;;;;;3.35;0.90;;;;;;;20.17;74.55;102637.69;5051920;28;20021;-73
2022/07/11 08:42:41;;;;;;;8.50;0.90;;;;;;;20.05;76.67;102637.09;5051458;28;20416;-72
2022/07/11 08:45:07;;;;;;;1.33;1.08;;;;;;;20.02;77.80;102631.16;5051763;28;20207;-75
2022/07/11 08:47:35;;;;;;;3.28;1.08;;;;;;;20.06;75.43;102629.84;5051921;28;20071;-74
2022/07/11 08:50:01;;;;;;;3.33;1.25;;;;;;;19.96;77.09;102638.06;5050136;28;20037;-74
2022/07/11 08:52:28;;;;;;;2.58;0.98;;;;;;;20.12;75.50;102631.91;5051587;28;20048;-75
2022/07/11 08:54:53;;;;;;;3.25;1.00;;;;;;;20.33;75.94;102625.28;5051347;28;20041;-76
2022/07/11 08:57:19;;;;;;;4.88;1.00;;;;;;;20.58;76.82;102628.94;5051754;28;20449;-75
2022/07/11 08:59:47;;;;;;;2.55;1.05;;;;;;;20.82;74.45;102630.94;5052086;28;20419;-75
2022/07/11 09:02:13;;;;;;;1.48;0.90;;;;;;;20.94;73.62;102637.75;5052252;28;20033;-76
2022/07/11 09:04:38;;;;;;;4.70;0.90;;;;;;;21.05;73.47;102620.38;5055270;28;20433;-75
2022/07/11 09:07:04;;;;;;;6.25;1.38;;;;;;;21.22;72.68;102623.94;5053706;28;20033;-73
2022/07/11 09:09:29;;;;;;;2.35;1.00;;;;;;;20.94;70.86;102623.38;5052015;28;20044;-75
2022/07/11 09:11:57;;;;;;;0.80;0.80;;;;;;;21.11;72.52;102618.84;5052074;28;20055;-75
2022/07/11 09:14:31;;;;;;;2.13;1.00;;;;;;;21.12;72.52;102621.41;5052045;28;20037;-75
2022/07/11 09:16:58;;;;;;;1.33;0.90;;;;;;;21.14;73.79;102616.66;5051634;28;20504;-75
2022/07/11 09:19:29;;;;;;;2.95;1.00;;;;;;;21.23;72.69;102622.06;5051140;28;20060;-74
2022/07/11 09:28:04;;;;;;;4.68;0.88;;;;;;;21.79;70.93;102630.44;5051065;28;20059;-75
2022/07/11 09:30:39;;;;;;;2.42;1.13;;;;;;;22.41;70.17;102628.97;5051024;28;20036;-77
2022/07/11 09:33:10;;;;;;;2.38;1.00;;;;;;;22.60;66.70;102630.44;5049116;28;20353;-78
2022/07/11 09:35:45;;;;;;;2.92;1.13;;;;;;;22.34;66.06;102628.84;5049060;28;20349;-79
2022/07/11 09:38:16;;;;;;;1.00;0.80;;;;;;;21.99;65.25;102626.34;5051515;28;20036;-80
2022/07/11 09:40:47;;;;;;;0.93;0.90;;;;;;;22.27;67.13;102631.34;5051889;28;20063;-78
2022/07/11 09:43:14;;;;;;;2.42;0.98;;;;;;;22.70;60.35;102633.78;5050091;28;20033;-78
2022/07/11 09:45:39;;;;;;;0.90;0.90;;;;;;;22.48;61.57;102628.13;5051521;28;20131;-81
2022/07/11 09:48:13;;;;;;;2.25;0.93;;;;;;;22.61;61.96;102630.25;5051462;28;20056;-80
2022/07/11 09:50:41;;;;;;;2.22;1.10;;;;;;;22.83;64.19;102627.81;5051526;28;20037;-78
2022/07/11 09:53:13;;;;;;;3.42;1.20;;;;;;;22.79;63.64;102630.00;5051076;28;20040;-77
2022/07/11 09:55:46;;;;;;;3.38;1.30;;;;;;;22.83;61.78;102619.66;5051316;28;20053;-77
2022/07/11 09:58:16;;;;;;;2.28;1.38;;;;;;;22.74;63.76;102620.75;5050756;28;20029;-78
2022/07/11 10:00:43;;;;;;;2.90;1.10;;;;;;;23.24;63.33;102627.56;5050497;28;20496;-78
2022/07/11 10:03:10;;;;;;;3.05;1.10;;;;;;;24.52;56.25;102616.88;5048939;28;20065;-77
2022/07/11 10:05:37;;;;;;;1.60;1.15;;;;;;;25.28;53.72;102613.81;5048948;28;20029;-78
2022/07/11 10:08:04;;;;;;;2.97;1.50;;;;;;;25.48;50.39;102617.59;5050878;28;20251;-78
2022/07/11 10:10:31;;;;;;;3.03;1.30;;;;;;;25.62;49.53;102606.81;5050528;28;20037;-78
2022/07/11 10:12:57;;;;;;;3.25;1.40;;;;;;;25.16;52.70;102611.59;5050362;28;20033;-78
2022/07/11 10:15:23;;;;;;;5.57;1.55;;;;;;;24.85;53.61;102606.44;5050633;28;20470;-77
2022/07/11 10:18:12;;;;;;;2.78;1.23;;;;;;;24.20;55.74;102619.81;5049848;28;20406;-76
2022/07/11 10:20:51;;;;;;;4.68;1.60;;;;;;;24.49;54.66;102615.38;5050422;28;20036;-76
2022/07/11 10:23:23;;;;;;;2.92;1.20;;;;;;;25.65;51.85;102611.88;5050456;28;20025;-77
2022/07/11 10:26:03;;;;;;;2.30;1.13;;;;;;;25.15;52.50;102606.31;5050421;28;20029;-75
2022/07/11 10:28:54;;;;;;;2.28;1.20;;;;;;;25.45;53.27;102614.41;5050360;28;20056;-76
2022/07/11 10:31:24;;;;;;;4.15;1.42;;;;;;;27.37;51.02;102603.88;5050224;28;20116;-76
2022/07/11 10:34:15;;;;;;;1.88;1.30;;;;;;;29.09;44.29;102606.38;5050509;28;20062;-77
2022/07/11 10:36:41;;;;;;;2.00;1.10;;;;;;;29.63;42.88;102617.78;5050420;28;20033;-77
2022/07/11 10:39:16;;;;;;;0.95;0.90;;;;;;;29.08;41.47;102607.44;5050024;28;20130;-80
2022/07/11 10:41:41;;;;;;;4.03;1.20;;;;;;;27.64;44.27;102610.19;5050586;28;20032;-79
2022/07/11 10:44:07;;;;;;;1.35;0.90;;;;;;;27.10;45.14;102612.03;5049861;28;20025;-80
2022/07/11 10:46:35;;;;;;;2.45;0.90;;;;;;;26.17;47.81;102620.63;5051174;28;20128;-80
2022/07/11 10:49:15;;;;;;;1.83;1.00;;;;;;;26.63;48.23;102617.28;5054211;28;20033;-80
2022/07/11 10:51:40;;;;;;;3.67;1.40;;;;;;;28.30;43.40;102606.50;5054274;28;20121;-79
2022/07/11 10:54:19;;;;;;;1.55;0.90;;;;;;;29.24;39.49;102605.25;5053998;28;20088;-79
2022/07/11 10:57:01;;;;;;;1.65;0.95;;;;;;;29.65;38.98;102606.59;5053998;28;20024;-78
2022/07/11 10:59:26;;;;;;;5.55;1.00;;;;;;;29.40;40.09;102609.38;5054340;28;20025;-80
2022/07/11 11:02:03;;;;;;;3.22;1.00;;;;;;;28.52;42.25;102600.75;5054000;28;20533;-80
2022/07/11 11:04:43;;;;;;;2.60;1.00;;;;;;;27.41;43.14;102611.47;5053987;28;20025;-78
2022/07/11 11:07:34;;;;;;;1.17;0.70;;;;;;;26.56;45.26;102614.53;5053887;28;20048;-78
2022/07/11 11:09:59;;;;;;;;;;;;;;;27.42;43.31;102598.63;5052853;28;20272;-76
2022/07/11 11:12:59;;;;;;;2.42;1.00;;;;;;;28.17;42.84;102606.59;5053751;28;19923;-78
2022/07/11 11:15:39;;;;;;;1.23;1.13;;;;;;;28.79;43.32;102606.13;5053994;28;20450;-78
2022/07/11 11:18:23;;;;;;;0.70;0.70;;;;;;;28.82;40.02;102602.97;5053615;28;20083;-78
2022/07/11 11:20:57;;;;;;;1.73;1.05;;;;;;;28.30;43.93;102595.56;5053647;28;20017;-77
2022/07/11 11:23:23;;;;;;;1.08;0.80;;;;;;;27.53;43.25;102589.81;5054230;28;20047;-78
2022/07/11 11:25:50;;;;;;;2.15;0.80;;;;;;;27.01;44.39;102596.88;5052582;28;20025;-77
2022/07/11 11:28:23;;;;;;;0.98;0.88;;;;;;;26.53;48.52;102600.47;5052884;28;20428;-77